Time;durP1;ratioP1;P1;durP2;ratioP2;P2;SDS_P1;SDS_P2;PMS_P1;PMS_P2;Temp;Humidity;BMP_temperature;BMP_pressure;BME280_temperature;BME280_humidity;BME280_pressure;Samples;Min_cycle;Max_cycle;Signal;HPM_P1;HPM_P2
2022/03/07 00:02:08;;;;;;;7.30;4.03;;;8.00;64.10;;;;;;5031250;28;20390;-66
2022/03/07 00:04:34;;;;;;;9.70;4.20;;;8.00;65.00;;;;;;5013773;28;20056;-66
2022/03/07 00:07:00;;;;;;;11.82;4.88;;;7.90;64.30;;;;;;5014911;28;20069;-66
2022/03/07 00:09:26;;;;;;;10.02;4.90;;;8.00;64.60;;;;;;5033685;28;20128;-66
2022/03/07 00:11:52;;;;;;;6.15;4.15;;;8.00;64.60;;;;;;5009485;28;20546;-67
2022/03/07 00:14:17;;;;;;;9.60;4.30;;;8.00;64.70;;;;;;5021239;28;20082;-66
2022/03/07 00:16:44;;;;;;;7.25;4.18;;;8.00;64.40;;;;;;5030390;28;20438;-66
2022/03/07 00:19:10;;;;;;;8.75;4.40;;;8.00;64.60;;;;;;5011540;28;20021;-68
2022/03/07 00:21:36;;;;;;;9.15;4.53;;;8.00;64.80;;;;;;5010693;28;20432;-66
2022/03/07 00:24:03;;;;;;;8.20;4.07;;;8.00;65.00;;;;;;4972792;28;1096323;-66
2022/03/07 00:26:28;;;;;;;9.25;5.03;;;8.00;65.00;;;;;;5020604;28;20481;-66
2022/03/07 00:28:54;;;;;;;8.77;4.38;;;8.00;65.00;;;;;;5025059;28;20045;-66
2022/03/07 00:31:20;;;;;;;5.25;3.67;;;8.00;65.10;;;;;;5031579;28;20463;-67
2022/03/07 00:33:47;;;;;;;8.18;3.70;;;8.00;65.10;;;;;;5032401;28;20034;-66
2022/03/07 00:36:12;;;;;;;7.35;3.60;;;8.00;65.20;;;;;;5031874;28;20112;-66
2022/03/07 00:38:38;;;;;;;10.48;3.33;;;7.90;65.40;;;;;;5031621;28;20100;-66
2022/03/07 00:41:04;;;;;;;7.72;3.72;;;8.00;65.50;;;;;;5032926;28;20034;-66
2022/03/07 00:43:30;;;;;;;6.72;4.03;;;8.00;65.40;;;;;;5031418;28;20463;-67
2022/03/07 00:45:55;;;;;;;7.60;4.35;;;8.00;65.20;;;;;;5012102;28;20072;-67
2022/03/07 00:48:21;;;;;;;9.18;3.97;;;8.00;66.20;;;;;;5016838;28;20104;-66
2022/03/07 00:50:49;;;;;;;8.38;3.85;;;8.00;65.40;;;;;;5031354;28;20025;-66
2022/03/07 00:53:21;;;;;;;9.07;3.95;;;8.00;65.70;;;;;;5031142;28;20478;-66
2022/03/07 00:55:47;;;;;;;8.93;4.70;;;8.00;65.50;;;;;;5031256;28;20033;-66
2022/03/07 00:58:13;;;;;;;8.15;3.22;;;8.00;65.40;;;;;;5031212;28;20021;-66
2022/03/07 01:00:40;;;;;;;7.35;3.47;;;8.00;65.20;;;;;;5015462;28;20405;-66
2022/03/07 01:03:09;;;;;;;6.78;4.68;;;8.00;65.10;;;;;;5031366;28;20099;-66
2022/03/07 01:05:36;;;;;;;8.52;3.45;;;7.90;65.30;;;;;;5031948;28;20533;-66
2022/03/07 01:08:02;;;;;;;7.57;4.13;;;7.90;65.40;;;;;;5013334;28;20041;-66
2022/03/07 01:10:28;;;;;;;8.77;3.83;;;8.00;65.70;;;;;;5030312;28;20501;-66
2022/03/07 01:12:54;;;;;;;9.02;4.20;;;8.00;65.40;;;;;;5030788;28;20032;-66
2022/03/07 01:15:20;;;;;;;6.72;4.15;;;8.00;65.20;;;;;;5030040;28;20022;-66
2022/03/07 01:17:46;;;;;;;7.18;3.55;;;7.90;65.90;;;;;;5015523;28;20026;-66
2022/03/07 01:20:12;;;;;;;6.38;3.83;;;7.90;65.10;;;;;;5015184;28;20026;-66
2022/03/07 01:22:38;;;;;;;8.15;3.95;;;8.00;65.20;;;;;;5032776;28;20022;-66
2022/03/07 01:25:06;;;;;;;9.02;4.00;;;7.90;65.40;;;;;;5032963;28;20387;-66
2022/03/07 01:27:32;;;;;;;12.10;4.10;;;7.90;65.30;;;;;;5029916;28;20048;-66
2022/03/07 01:29:58;;;;;;;5.35;3.13;;;7.90;65.90;;;;;;5045986;28;20021;-66
2022/03/07 01:32:24;;;;;;;11.02;3.70;;;7.90;65.30;;;;;;5029714;28;20034;-66
2022/03/07 01:34:50;;;;;;;7.97;3.33;;;7.90;65.70;;;;;;5030584;28;20022;-66
2022/03/07 01:37:16;;;;;;;6.97;3.75;;;7.90;65.70;;;;;;5030111;28;20022;-66
2022/03/07 01:39:42;;;;;;;8.50;4.03;;;7.90;65.60;;;;;;5030294;28;20040;-66
2022/03/07 01:42:08;;;;;;;12.52;4.35;;;8.00;65.50;;;;;;5016761;28;20029;-66
2022/03/07 01:44:34;;;;;;;5.10;3.55;;;7.90;65.90;;;;;;5030383;28;20048;-66
2022/03/07 01:47:00;;;;;;;7.43;3.13;;;7.90;65.80;;;;;;5029639;28;20053;-65
2022/03/07 01:49:27;;;;;;;4.07;3.05;;;7.90;66.00;;;;;;5045814;28;20046;-66
2022/03/07 01:51:53;;;;;;;10.23;4.43;;;7.90;65.80;;;;;;5012395;28;20032;-66
2022/03/07 01:54:21;;;;;;;8.13;4.40;;;7.90;65.60;;;;;;5030227;28;20105;-66
2022/03/07 01:56:48;;;;;;;7.05;3.83;;;8.00;65.70;;;;;;5017318;28;20030;-66
2022/03/07 01:59:19;;;;;;;6.60;3.92;;;8.00;65.60;;;;;;4992572;28;20037;-66
2022/03/07 02:01:45;;;;;;;;;;;7.90;65.50;;;;;;5010525;28;20026;-65
2022/03/07 02:04:11;;;;;;;7.45;3.90;;;7.90;65.80;;;;;;5019616;28;21314;-66
2022/03/07 02:06:38;;;;;;;8.45;4.30;;;7.90;65.80;;;;;;5028566;28;20022;-65
2022/03/07 02:09:04;;;;;;;5.15;3.55;;;7.90;65.80;;;;;;5029106;28;20056;-65
2022/03/07 02:11:31;;;;;;;8.20;3.70;;;7.90;65.60;;;;;;5028292;28;20087;-65
2022/03/07 02:13:57;;;;;;;6.18;3.90;;;7.90;65.80;;;;;;5027148;28;20029;-66
2022/03/07 02:16:22;;;;;;;6.85;3.60;;;7.90;65.50;;;;;;5012298;28;20386;-66
2022/03/07 02:18:48;;;;;;;7.25;3.67;;;7.90;65.90;;;;;;5025336;28;20043;-66
2022/03/07 02:21:16;;;;;;;12.15;4.30;;;7.90;65.60;;;;;;5029823;28;20475;-66
2022/03/07 02:23:43;;;;;;;6.28;3.70;;;7.90;65.90;;;;;;5030060;28;20048;-65
2022/03/07 02:26:17;;;;;;;6.30;3.28;;;7.90;65.80;;;;;;5017337;28;20033;-66
2022/03/07 02:28:45;;;;;;;13.27;4.15;;;7.90;66.00;;;;;;5031689;28;20041;-66
2022/03/07 02:31:16;;;;;;;7.75;4.72;;;7.90;65.90;;;;;;5049628;28;20493;-66
2022/03/07 02:33:41;;;;;;;8.48;3.88;;;7.90;65.90;;;;;;5031019;28;20218;-66
2022/03/07 02:36:07;;;;;;;8.52;3.75;;;7.90;65.70;;;;;;5017986;28;20543;-66
2022/03/07 02:38:34;;;;;;;6.70;3.47;;;7.90;65.60;;;;;;5025795;28;20026;-66
2022/03/07 02:41:00;;;;;;;5.53;2.95;;;7.90;65.70;;;;;;5029373;28;20120;-66
2022/03/07 02:43:26;;;;;;;5.38;3.47;;;7.90;66.10;;;;;;5029910;28;20021;-66
2022/03/07 02:45:52;;;;;;;7.93;3.88;;;7.90;65.80;;;;;;5029434;28;20033;-66
2022/03/07 02:48:18;;;;;;;9.18;3.85;;;7.90;65.80;;;;;;5030132;28;20559;-66
2022/03/07 02:50:45;;;;;;;7.53;3.58;;;7.90;65.80;;;;;;5029853;28;20029;-66
2022/03/07 02:53:11;;;;;;;6.70;4.00;;;7.90;65.60;;;;;;5024777;28;20052;-66
2022/03/07 02:55:37;;;;;;;10.02;4.00;;;7.90;65.80;;;;;;5029710;28;20033;-66
2022/03/07 02:58:03;;;;;;;9.63;4.53;;;7.90;65.80;;;;;;5029693;28;20124;-66
2022/03/07 03:00:49;;;;;;;7.30;3.72;;;7.90;65.90;;;;;;5033027;28;20018;-66
2022/03/07 03:03:14;;;;;;;8.30;4.05;;;7.90;65.70;;;;;;5011684;28;20018;-66
2022/03/07 03:05:54;;;;;;;9.02;4.38;;;7.90;65.80;;;;;;5026637;28;20467;-66
2022/03/07 03:08:29;;;;;;;8.95;4.18;;;7.90;65.50;;;;;;5014730;28;20064;-65
2022/03/07 03:10:57;;;;;;;9.70;4.22;;;7.90;65.60;;;;;;5014077;28;20021;-66
2022/03/07 03:13:23;;;;;;;7.80;3.75;;;7.80;65.70;;;;;;5027008;28;20152;-66
2022/03/07 03:15:49;;;;;;;7.25;3.88;;;7.80;66.00;;;;;;5029201;28;20601;-65
2022/03/07 03:18:16;;;;;;;6.32;4.18;;;7.80;66.00;;;;;;5031615;28;20029;-66
2022/03/07 03:20:43;;;;;;;9.27;4.53;;;7.90;65.80;;;;;;5032216;28;20401;-66
2022/03/07 03:23:09;;;;;;;8.93;4.25;;;7.80;66.40;;;;;;5032020;28;20029;-65
2022/03/07 03:25:35;;;;;;;5.70;3.80;;;7.80;66.20;;;;;;5032715;28;20028;-65
2022/03/07 03:28:01;;;;;;;5.07;3.50;;;7.80;66.00;;;;;;5052901;23;20092;-63
2022/03/07 03:30:27;;;;;;;9.43;4.68;;;7.90;66.30;;;;;;5015515;28;20033;-63
2022/03/07 03:32:54;;;;;;;8.52;4.50;;;7.90;66.30;;;;;;5014292;28;20018;-63
2022/03/07 03:35:19;;;;;;;9.32;4.22;;;7.80;66.10;;;;;;5016374;28;20037;-63
2022/03/07 03:37:45;;;;;;;9.30;3.97;;;7.90;66.10;;;;;;4995859;28;20029;-63
2022/03/07 03:40:12;;;;;;;8.20;3.95;;;7.90;66.10;;;;;;5003615;28;20064;-63
2022/03/07 03:42:39;;;;;;;6.75;4.47;;;7.80;66.60;;;;;;5012735;28;20028;-62
2022/03/07 03:45:08;;;;;;;10.57;4.88;;;7.80;66.40;;;;;;5018542;28;20037;-63
2022/03/07 03:47:35;;;;;;;7.63;4.30;;;7.80;66.80;;;;;;5012853;28;20042;-62
2022/03/07 03:50:01;;;;;;;8.57;4.22;;;7.80;66.90;;;;;;5012835;28;20053;-63
2022/03/07 03:52:27;;;;;;;7.00;3.47;;;7.80;66.90;;;;;;4995244;28;20120;-63
2022/03/07 03:54:55;;;;;;;7.45;4.43;;;7.90;66.60;;;;;;4994802;28;20118;-63
2022/03/07 03:57:21;;;;;;;5.97;3.97;;;7.80;66.60;;;;;;4994118;28;20033;-63
2022/03/07 03:59:47;;;;;;;9.95;3.80;;;7.80;66.70;;;;;;4994385;28;20442;-63
2022/03/07 04:02:13;;;;;;;10.07;3.78;;;7.90;66.70;;;;;;5010912;28;20030;-63
2022/03/07 04:04:39;;;;;;;9.98;4.53;;;7.80;66.50;;;;;;5011785;28;20026;-63
2022/03/07 04:07:05;;;;;;;9.80;4.10;;;7.80;66.70;;;;;;5011631;28;20033;-62
2022/03/07 04:09:30;;;;;;;11.02;4.95;;;7.80;66.90;;;;;;5010972;28;20176;-63
2022/03/07 04:11:56;;;;;;;10.25;3.97;;;7.80;66.90;;;;;;5010911;28;20117;-63
2022/03/07 04:14:22;;;;;;;5.30;3.72;;;7.80;66.80;;;;;;5015300;28;20466;-63
2022/03/07 04:16:48;;;;;;;7.63;4.28;;;7.80;67.10;;;;;;5013143;28;20038;-62
2022/03/07 04:19:15;;;;;;;8.77;4.78;;;7.80;66.90;;;;;;5012665;28;20405;-63
2022/03/07 04:21:42;;;;;;;7.72;4.20;;;7.80;66.80;;;;;;4999293;28;20386;-62
2022/03/07 04:24:09;;;;;;;9.57;4.85;;;7.90;67.20;;;;;;5012852;28;20045;-62
2022/03/07 04:26:35;;;;;;;8.63;4.10;;;7.80;67.30;;;;;;5010317;28;20072;-63
2022/03/07 04:29:05;;;;;;;8.93;4.25;;;7.80;67.20;;;;;;5017552;28;20474;-62
2022/03/07 04:31:32;;;;;;;6.93;3.67;;;7.80;67.10;;;;;;5026636;28;20034;-62
2022/03/07 04:33:58;;;;;;;9.82;4.78;;;7.80;67.00;;;;;;4994968;28;20109;-62
2022/03/07 04:36:23;;;;;;;10.10;4.80;;;7.80;67.10;;;;;;5012109;28;20658;-63
2022/03/07 04:38:49;;;;;;;10.63;4.53;;;7.80;67.00;;;;;;4994556;28;20451;-63
2022/03/07 04:41:15;;;;;;;7.75;4.57;;;7.80;67.40;;;;;;5011608;28;20084;-62
2022/03/07 04:43:40;;;;;;;8.50;4.18;;;7.80;67.30;;;;;;4993629;28;20508;-63
2022/03/07 04:46:11;;;;;;;12.52;5.03;;;7.80;67.30;;;;;;5014025;28;20030;-62
2022/03/07 04:48:37;;;;;;;6.60;4.10;;;7.80;67.10;;;;;;5014139;28;20034;-62
2022/03/07 04:51:03;;;;;;;10.65;4.63;;;7.80;66.90;;;;;;5031344;28;20067;-62
2022/03/07 04:53:30;;;;;;;8.02;4.60;;;7.80;67.10;;;;;;5021157;28;20537;-62
2022/03/07 04:55:57;;;;;;;10.23;4.30;;;7.80;67.20;;;;;;5011607;28;20409;-63
2022/03/07 04:58:23;;;;;;;10.02;4.72;;;7.80;67.60;;;;;;5004294;28;20029;-62
2022/03/07 05:00:49;;;;;;;8.57;4.70;;;7.80;67.50;;;;;;5012266;28;20414;-62
2022/03/07 05:03:15;;;;;;;8.30;4.90;;;7.80;67.50;;;;;;5010855;28;20049;-63
2022/03/07 05:05:40;;;;;;;8.88;4.25;;;7.80;67.60;;;;;;5011735;28;20022;-61
2022/03/07 05:08:06;;;;;;;10.25;5.50;;;7.80;67.50;;;;;;5010117;28;20042;-62
2022/03/07 05:10:32;;;;;;;8.18;4.80;;;7.80;67.70;;;;;;5010568;28;20079;-62
2022/03/07 05:12:58;;;;;;;12.20;5.63;;;7.70;67.40;;;;;;5011858;28;20026;-62
2022/03/07 05:15:24;;;;;;;7.05;3.85;;;7.80;67.60;;;;;;5023909;28;20029;-61
2022/03/07 05:17:53;;;;;;;8.98;4.13;;;7.80;67.40;;;;;;5020360;28;20107;-61
2022/03/07 05:20:20;;;;;;;8.60;4.55;;;7.80;67.50;;;;;;5011071;28;20098;-61
2022/03/07 05:22:45;;;;;;;10.30;4.38;;;7.80;67.60;;;;;;5011426;28;20025;-61
2022/03/07 05:25:12;;;;;;;12.05;6.15;;;7.80;67.80;;;;;;5011048;28;20379;-62
2022/03/07 05:27:39;;;;;;;8.15;4.07;;;7.80;68.00;;;;;;5011498;28;20475;-61
2022/03/07 05:30:07;;;;;;;9.68;5.43;;;7.80;67.90;;;;;;5011016;28;20034;-61
2022/03/07 05:32:33;;;;;;;9.80;5.05;;;7.80;67.90;;;;;;5010487;28;20497;-61
2022/03/07 05:34:58;;;;;;;11.25;5.15;;;7.80;68.20;;;;;;4993201;28;20033;-61
2022/03/07 05:37:25;;;;;;;10.45;4.85;;;7.80;67.80;;;;;;5009861;28;20030;-62
2022/03/07 05:39:51;;;;;;;12.57;4.95;;;7.80;68.00;;;;;;5010417;28;20114;-61
2022/03/07 05:42:17;;;;;;;13.52;6.38;;;7.80;67.70;;;;;;5009495;28;20101;-61
2022/03/07 05:44:43;;;;;;;10.35;4.88;;;7.80;67.80;;;;;;5009749;28;20034;-62
2022/03/07 05:47:09;;;;;;;9.27;5.07;;;7.80;68.20;;;;;;5010032;28;20022;-61
2022/03/07 05:49:34;;;;;;;11.23;5.07;;;7.80;68.10;;;;;;5008777;28;20387;-61
2022/03/07 05:52:00;;;;;;;12.10;6.00;;;7.80;68.00;;;;;;5009782;28;20387;-61
2022/03/07 05:54:26;;;;;;;10.15;5.70;;;7.80;68.20;;;;;;5010603;28;20038;-61
2022/03/07 05:56:52;;;;;;;8.35;4.55;;;7.80;68.00;;;;;;5009955;28;20107;-61
2022/03/07 05:59:17;;;;;;;8.65;5.15;;;7.80;68.00;;;;;;5011401;28;20029;-61
2022/03/07 06:01:43;;;;;;;15.90;5.05;;;7.80;67.80;;;;;;5030141;28;20021;-61
2022/03/07 06:04:09;;;;;;;15.02;5.20;;;7.80;67.90;;;;;;5016354;28;20573;-61
2022/03/07 06:06:35;;;;;;;12.77;5.75;;;7.80;68.00;;;;;;5008603;28;20065;-61
2022/03/07 06:09:01;;;;;;;10.77;5.70;;;7.80;68.10;;;;;;5002437;28;20038;-61
2022/03/07 06:11:27;;;;;;;12.60;6.13;;;7.80;68.00;;;;;;5009359;28;20584;-61
2022/03/07 06:13:52;;;;;;;10.07;5.63;;;7.80;68.00;;;;;;5009997;28;20053;-61
2022/03/07 06:16:18;;;;;;;11.52;5.70;;;7.80;67.90;;;;;;5009230;28;20498;-61
2022/03/07 06:18:44;;;;;;;12.18;6.05;;;7.70;68.40;;;;;;5009660;28;20028;-61
2022/03/07 06:21:09;;;;;;;14.73;6.43;;;7.70;68.30;;;;;;5008533;28;20037;-62
2022/03/07 06:23:36;;;;;;;9.75;5.57;;;7.70;68.20;;;;;;5010079;28;20491;-61
2022/03/07 06:26:04;;;;;;;13.18;5.85;;;7.70;68.10;;;;;;5010040;28;20347;-61
2022/03/07 06:28:30;;;;;;;9.90;5.47;;;7.80;68.30;;;;;;5009603;28;20042;-61
2022/03/07 06:30:56;;;;;;;11.18;5.55;;;7.80;67.80;;;;;;5021567;28;20193;-61
2022/03/07 06:33:21;;;;;;;9.63;5.05;;;7.70;67.20;;;;;;5029088;28;20029;-61
2022/03/07 06:35:47;;;;;;;13.88;5.90;;;7.70;66.90;;;;;;5029345;28;20524;-61
2022/03/07 06:38:12;;;;;;;14.77;6.00;;;7.70;67.30;;;;;;5029185;28;20091;-62
2022/03/07 06:40:38;;;;;;;15.85;5.55;;;7.70;67.50;;;;;;5029504;28;20026;-61
2022/03/07 06:43:04;;;;;;;9.07;5.78;;;7.80;67.20;;;;;;5029211;28;20029;-62
2022/03/07 06:45:30;;;;;;;13.30;6.45;;;7.70;67.20;;;;;;5018384;28;20026;-61
2022/03/07 06:47:57;;;;;;;8.70;5.18;;;7.70;67.30;;;;;;5003549;28;20395;-61
2022/03/07 06:50:22;;;;;;;13.07;5.55;;;7.70;67.50;;;;;;5002257;28;20038;-61
2022/03/07 06:52:48;;;;;;;10.88;4.93;;;7.80;67.40;;;;;;5003161;28;20036;-61
2022/03/07 06:55:14;;;;;;;9.90;5.88;;;7.80;67.50;;;;;;5006415;28;20031;-61
2022/03/07 06:57:41;;;;;;;11.82;5.20;;;7.80;67.40;;;;;;5000906;28;20030;-61
2022/03/07 07:00:09;;;;;;;12.85;6.85;;;7.80;67.50;;;;;;5011645;28;20025;-61
2022/03/07 07:02:36;;;;;;;13.10;6.43;;;7.80;67.30;;;;;;5021781;28;20021;-61
2022/03/07 07:05:03;;;;;;;10.73;5.93;;;7.80;67.10;;;;;;5009744;28;20026;-61
2022/03/07 07:07:29;;;;;;;12.80;5.70;;;7.90;66.90;;;;;;5009968;28;20520;-61
2022/03/07 07:09:55;;;;;;;10.98;5.95;;;7.90;67.20;;;;;;5004087;28;20037;-61
2022/03/07 07:12:21;;;;;;;10.80;5.80;;;7.90;67.20;;;;;;4988680;28;20030;-61
2022/03/07 07:14:47;;;;;;;14.95;6.20;;;7.90;66.90;;;;;;5005167;28;20026;-61
2022/03/07 07:17:12;;;;;;;14.30;5.95;;;7.90;67.10;;;;;;5009525;28;20022;-61
2022/03/07 07:19:38;;;;;;;12.30;5.32;;;7.90;67.20;;;;;;5009280;28;20054;-61
2022/03/07 07:22:04;;;;;;;8.85;5.28;;;8.00;67.30;;;;;;5008990;28;20057;-61
2022/03/07 07:24:29;;;;;;;11.00;5.55;;;8.00;67.10;;;;;;5009749;28;20026;-61
2022/03/07 07:26:55;;;;;;;11.73;6.00;;;8.10;66.70;;;;;;5008722;28;20539;-61
2022/03/07 07:29:21;;;;;;;13.57;4.28;;;8.10;66.60;;;;;;4998168;28;20030;-62
2022/03/07 07:31:47;;;;;;;10.93;4.75;;;8.20;66.50;;;;;;5002104;28;20026;-62
2022/03/07 07:34:14;;;;;;;12.20;5.32;;;8.20;66.10;;;;;;5005876;28;20340;-61
2022/03/07 07:36:40;;;;;;;8.07;5.03;;;8.30;65.80;;;;;;5010513;28;20029;-61
2022/03/07 07:39:05;;;;;;;10.15;5.45;;;8.40;65.30;;;;;;5009097;28;20026;-61
2022/03/07 07:41:31;;;;;;;9.43;5.13;;;8.50;65.20;;;;;;5008498;28;20083;-61
2022/03/07 07:43:57;;;;;;;8.90;4.75;;;8.50;64.90;;;;;;4994140;28;20023;-61
2022/03/07 07:46:22;;;;;;;9.02;4.78;;;8.60;65.00;;;;;;5015494;28;20032;-61
2022/03/07 07:48:48;;;;;;;9.38;4.50;;;8.60;64.90;;;;;;5012736;28;20034;-60
2022/03/07 07:51:14;;;;;;;9.50;4.70;;;8.60;65.10;;;;;;5020279;28;20026;-61
2022/03/07 07:53:40;;;;;;;12.15;5.53;;;8.60;65.30;;;;;;5008852;28;20491;-60
2022/03/07 07:56:05;;;;;;;11.85;4.00;;;8.60;65.40;;;;;;5008926;28;20029;-61
2022/03/07 07:58:31;;;;;;;11.57;5.70;;;8.60;65.00;;;;;;5009058;28;20032;-61
2022/03/07 08:00:57;;;;;;;9.35;5.18;;;8.70;64.70;;;;;;5007495;28;20119;-61
2022/03/07 08:03:22;;;;;;;8.77;5.30;;;8.70;64.60;;;;;;5011188;28;20080;-61
2022/03/07 08:05:48;;;;;;;9.00;4.63;;;8.70;64.50;;;;;;5013307;28;20100;-61
2022/03/07 08:08:17;;;;;;;9.73;4.10;;;8.70;65.20;;;;;;5015656;28;20037;-61
2022/03/07 08:10:43;;;;;;;9.10;4.97;;;8.70;65.00;;;;;;5013267;28;20041;-60
2022/03/07 08:13:09;;;;;;;6.85;4.45;;;8.70;64.50;;;;;;5014287;28;20022;-61
2022/03/07 08:15:34;;;;;;;11.73;4.85;;;8.70;65.40;;;;;;5014738;28;20042;-61
2022/03/07 08:18:00;;;;;;;8.07;4.60;;;8.80;65.00;;;;;;5013602;28;20030;-60
2022/03/07 08:20:27;;;;;;;8.32;4.93;;;8.80;64.80;;;;;;5001926;28;20022;-61
2022/03/07 08:22:54;;;;;;;9.20;4.53;;;8.80;65.00;;;;;;5006594;28;20025;-61
2022/03/07 08:25:21;;;;;;;9.25;5.03;;;8.80;65.30;;;;;;5006656;28;20041;-61
2022/03/07 08:27:48;;;;;;;17.98;5.20;;;8.80;65.00;;;;;;5011144;28;20038;-61
2022/03/07 08:30:15;;;;;;;12.23;5.18;;;8.80;64.80;;;;;;5025318;28;20018;-61
2022/03/07 08:32:41;;;;;;;10.52;4.80;;;8.90;64.60;;;;;;5010538;28;20021;-60
2022/03/07 08:35:09;;;;;;;10.48;5.38;;;8.80;65.00;;;;;;5011429;28;20492;-61
2022/03/07 08:37:35;;;;;;;11.77;5.90;;;8.90;65.10;;;;;;5006802;28;20116;-61
2022/03/07 08:40:02;;;;;;;8.73;5.13;;;8.90;65.50;;;;;;5012052;28;20117;-61
2022/03/07 08:42:28;;;;;;;7.13;4.20;;;8.90;67.40;;;;;;5009635;28;20036;-61
2022/03/07 08:44:54;;;;;;;10.68;5.57;;;8.90;66.50;;;;;;5008960;28;20534;-61
2022/03/07 08:47:20;;;;;;;8.55;5.15;;;8.90;66.60;;;;;;5010989;28;20045;-60
2022/03/07 08:49:46;;;;;;;8.85;4.90;;;8.90;67.30;;;;;;5011685;28;20021;-61
2022/03/07 08:52:15;;;;;;;12.70;6.00;;;8.90;66.90;;;;;;5011329;28;20430;-61
2022/03/07 08:54:47;;;;;;;12.05;5.13;;;8.90;67.20;;;;;;5011970;28;20029;-61
2022/03/07 08:57:13;;;;;;;8.48;5.05;;;8.90;66.10;;;;;;5011970;28;20037;-61
2022/03/07 08:59:39;;;;;;;12.57;6.07;;;8.90;68.50;;;;;;5012201;28;20087;-61
2022/03/07 09:02:05;;;;;;;11.02;4.78;;;8.90;66.70;;;;;;5021767;28;20026;-61
2022/03/07 09:04:31;;;;;;;13.05;6.22;;;8.90;67.30;;;;;;5030988;28;20076;-61
2022/03/07 09:06:56;;;;;;;7.38;4.60;;;8.90;66.90;;;;;;5031768;28;20083;-60
2022/03/07 09:09:22;;;;;;;7.88;4.05;;;8.90;68.90;;;;;;5031434;28;20029;-61
2022/03/07 09:11:48;;;;;;;7.25;4.47;;;8.90;66.70;;;;;;5031289;28;20414;-60
2022/03/07 09:14:14;;;;;;;11.43;5.78;;;8.90;66.60;;;;;;5019156;28;20491;-61
2022/03/07 09:16:40;;;;;;;13.82;6.32;;;8.90;66.80;;;;;;5010501;28;20164;-60
2022/03/07 09:19:06;;;;;;;10.65;5.90;;;8.90;67.10;;;;;;5009617;28;20022;-61
2022/03/07 09:21:32;;;;;;;11.20;4.68;;;8.90;66.30;;;;;;5011310;28;20029;-61
2022/03/07 09:23:57;;;;;;;11.50;5.03;;;9.00;67.50;;;;;;4993746;28;20152;-61
2022/03/07 09:26:23;;;;;;;12.10;6.32;;;8.90;70.30;;;;;;5011822;28;20375;-61
2022/03/07 09:28:49;;;;;;;8.30;5.45;;;8.90;68.00;;;;;;4993471;28;20077;-60
2022/03/07 09:34:31;;;;;;;11.30;5.68;;;8.90;68.00;;;;;;5033639;23;20057;-64
2022/03/07 09:36:57;;;;;;;9.02;5.47;;;9.00;68.80;;;;;;5012388;28;20030;-64
2022/03/07 09:39:23;;;;;;;7.35;4.65;;;9.00;68.00;;;;;;5011537;28;20037;-64
2022/03/07 09:41:48;;;;;;;11.15;5.25;;;9.00;67.90;;;;;;4995425;28;20411;-64
2022/03/07 09:44:14;;;;;;;10.38;5.30;;;9.00;66.60;;;;;;4992850;28;20018;-63
2022/03/07 09:46:39;;;;;;;13.23;6.22;;;9.10;66.40;;;;;;4998665;28;20083;-63
2022/03/07 09:49:05;;;;;;;10.80;5.10;;;9.10;67.80;;;;;;5001424;28;20400;-63
2022/03/07 09:51:31;;;;;;;15.68;8.18;;;9.10;68.90;;;;;;4997349;28;20022;-63
2022/03/07 09:53:57;;;;;;;10.32;6.07;;;9.10;67.60;;;;;;5008772;28;20042;-64
2022/03/07 09:56:22;;;;;;;16.77;6.78;;;9.10;66.40;;;;;;5003054;28;20102;-64
2022/03/07 09:58:48;;;;;;;20.02;6.45;;;9.10;66.70;;;;;;5000877;28;20018;-63
2022/03/07 10:01:19;;;;;;;12.35;6.25;;;9.10;66.40;;;;;;4996886;28;20492;-64
2022/03/07 10:03:45;;;;;;;;;;;9.10;68.00;;;;;;5012506;28;20499;-63
2022/03/07 10:06:19;;;;;;;10.27;5.80;;;9.10;68.40;;;;;;5031057;28;19905;-63
2022/03/07 10:08:53;;;;;;;11.43;5.85;;;9.10;66.20;;;;;;5030484;28;20025;-63
2022/03/07 10:11:19;;;;;;;12.75;7.65;;;9.10;67.30;;;;;;5028877;28;20059;-64
2022/03/07 10:13:59;;;;;;;10.50;5.93;;;9.20;66.60;;;;;;5011265;28;20018;-63
2022/03/07 10:16:37;;;;;;;12.45;7.10;;;9.20;67.40;;;;;;4991793;28;20022;-64
2022/03/07 10:19:09;;;;;;;13.43;6.72;;;9.20;66.30;;;;;;5002263;28;20390;-64
2022/03/07 10:21:34;;;;;;;15.80;7.80;;;9.20;66.20;;;;;;4991265;28;20018;-63
2022/03/07 10:24:00;;;;;;;17.58;8.82;;;9.30;66.00;;;;;;4991172;28;20022;-63
2022/03/07 10:26:33;;;;;;;14.05;6.32;;;9.30;66.20;;;;;;4994152;28;20033;-64
2022/03/07 10:28:59;;;;;;;12.18;7.00;;;9.30;66.10;;;;;;5011707;28;20036;-63
2022/03/07 10:31:26;;;;;;;16.45;8.55;;;9.30;65.40;;;;;;5010018;28;20071;-64
2022/03/07 10:44:38;;;;;;;13.82;8.27;;;9.30;67.40;;;;;;5014204;28;20132;-64
2022/03/07 10:47:17;;;;;;;;;;;9.30;66.50;;;;;;5011727;28;20033;-63
2022/03/07 10:49:55;;;;;;;13.65;7.10;;;9.30;67.40;;;;;;5024191;28;20301;-63
2022/03/07 10:52:22;;;;;;;13.43;6.97;;;9.30;67.20;;;;;;5029570;28;20516;-64
2022/03/07 10:54:49;;;;;;;14.80;7.25;;;9.30;67.60;;;;;;5012494;28;20052;-64
2022/03/07 10:57:17;;;;;;;14.48;7.78;;;9.40;66.80;;;;;;5030633;28;20025;-64
2022/03/07 10:59:43;;;;;;;17.13;6.93;;;9.40;66.20;;;;;;5030197;28;20077;-63
2022/03/07 11:02:11;;;;;;;15.73;8.35;;;9.40;66.20;;;;;;5016649;28;20108;-64
2022/03/07 11:04:38;;;;;;;15.23;7.82;;;9.40;66.20;;;;;;5021535;28;20071;-63
2022/03/07 11:07:05;;;;;;;12.90;6.53;;;9.30;66.10;;;;;;5031009;28;20040;-64
2022/03/07 11:09:31;;;;;;;17.35;8.50;;;9.30;66.60;;;;;;5032040;28;20044;-63
2022/03/07 11:11:59;;;;;;;15.00;7.20;;;9.30;66.10;;;;;;5032563;28;20661;-64
2022/03/07 11:14:29;;;;;;;16.00;9.32;;;9.30;66.10;;;;;;5013717;28;20030;-64
2022/03/07 11:16:59;;;;;;;11.70;6.57;;;9.30;65.90;;;;;;5013760;28;20028;-62
2022/03/07 11:19:27;;;;;;;12.65;7.13;;;9.30;66.10;;;;;;4990772;28;20034;-63
2022/03/07 11:21:55;;;;;;;17.25;8.38;;;9.30;66.10;;;;;;5007343;28;20037;-62
2022/03/07 11:24:23;;;;;;;20.65;8.48;;;9.30;66.10;;;;;;5008904;28;20100;-62
2022/03/07 11:26:50;;;;;;;13.65;7.22;;;9.30;66.00;;;;;;5009187;28;20105;-63
2022/03/07 11:29:17;;;;;;;18.50;7.38;;;9.30;65.70;;;;;;5009379;28;20180;-62
2022/03/07 11:31:43;;;;;;;18.80;10.48;;;9.30;66.50;;;;;;5010490;28;20029;-62
2022/03/07 11:34:12;;;;;;;13.20;7.65;;;9.40;66.00;;;;;;5004740;28;20038;-62
2022/03/07 11:36:41;;;;;;;15.10;7.70;;;9.40;65.30;;;;;;4993118;28;20109;-62
2022/03/07 11:39:08;;;;;;;16.00;8.90;;;9.30;66.00;;;;;;4993547;28;20035;-62
2022/03/07 11:41:36;;;;;;;14.40;8.32;;;9.40;66.50;;;;;;4994270;28;20031;-62
2022/03/07 11:44:11;;;;;;;14.18;7.70;;;9.30;66.10;;;;;;4994805;28;20113;-62
2022/03/07 11:46:38;;;;;;;18.92;9.50;;;9.30;65.70;;;;;;4992785;28;20022;-62
2022/03/07 11:49:09;;;;;;;12.15;5.15;;;9.30;65.80;;;;;;4998586;28;20376;-62
2022/03/07 11:51:38;;;;;;;18.25;9.32;;;9.30;65.60;;;;;;5015346;28;20049;-62
2022/03/07 11:54:17;;;;;;;14.82;8.18;;;9.20;65.60;;;;;;5013680;28;20022;-62
2022/03/07 11:56:43;;;;;;;17.98;7.60;;;9.20;65.60;;;;;;5014955;28;20026;-62
2022/03/07 11:59:09;;;;;;;18.02;9.35;;;9.20;66.10;;;;;;5013028;28;20041;-62
2022/03/07 12:01:36;;;;;;;17.60;8.43;;;9.20;65.90;;;;;;5012967;28;20030;-62
2022/03/07 12:04:14;;;;;;;17.95;8.88;;;9.10;66.00;;;;;;5012840;28;20026;-62
2022/03/07 12:06:52;;;;;;;12.02;7.75;;;9.10;65.60;;;;;;5013022;28;20550;-62
2022/03/07 12:09:28;;;;;;;25.02;8.32;;;9.10;65.80;;;;;;5014535;28;20585;-62
2022/03/07 12:11:59;;;;;;;18.70;10.68;;;9.10;65.50;;;;;;5013580;28;20061;-62
2022/03/07 12:14:30;;;;;;;14.45;7.47;;;9.10;66.40;;;;;;5013066;28;20484;-62
2022/03/07 12:16:56;;;;;;;15.43;8.50;;;9.10;66.60;;;;;;5012527;28;20030;-62
2022/03/07 12:19:24;;;;;;;16.25;7.50;;;9.10;66.30;;;;;;4994157;28;20528;-62
2022/03/07 12:21:50;;;;;;;16.90;8.75;;;9.10;66.00;;;;;;5004094;28;20061;-63
2022/03/07 12:24:18;;;;;;;17.33;8.57;;;9.10;65.60;;;;;;5005249;28;20030;-62
2022/03/07 12:26:55;;;;;;;15.88;8.05;;;9.20;65.80;;;;;;5014594;28;20052;-62
2022/03/07 12:29:26;;;;;;;14.65;8.63;;;9.10;65.60;;;;;;5014202;28;20069;-62
2022/03/07 12:31:56;;;;;;;13.38;7.60;;;9.20;66.10;;;;;;5012349;28;20076;-62
2022/03/07 12:34:32;;;;;;;13.40;6.47;;;9.20;65.90;;;;;;5010393;28;20112;-63
2022/03/07 12:37:04;;;;;;;14.48;8.38;;;9.10;65.60;;;;;;5012848;28;20056;-63
2022/03/07 12:39:42;;;;;;;18.33;8.20;;;9.20;65.50;;;;;;5012355;28;20022;-62
2022/03/07 12:42:08;;;;;;;21.60;9.85;;;9.20;65.60;;;;;;5012077;28;20022;-62
2022/03/07 12:44:33;;;;;;;18.65;8.80;;;9.20;66.20;;;;;;5012738;28;20044;-62
2022/03/07 12:46:59;;;;;;;20.70;11.40;;;9.20;65.70;;;;;;5011913;28;20552;-62
2022/03/07 12:49:25;;;;;;;21.20;10.48;;;9.20;66.40;;;;;;5010856;28;20053;-62
2022/03/07 12:51:51;;;;;;;19.83;8.93;;;9.30;65.90;;;;;;5012134;28;20034;-62
2022/03/07 12:54:28;;;;;;;18.63;10.25;;;9.30;65.90;;;;;;5008417;28;20023;-63
2022/03/07 12:56:54;;;;;;;17.15;8.07;;;9.30;66.90;;;;;;4975155;28;20037;-62
2022/03/07 12:59:25;;;;;;;11.98;8.10;;;9.30;65.60;;;;;;4992815;28;20034;-62
2022/03/07 13:01:51;;;;;;;12.93;7.93;;;9.40;65.10;;;;;;4994326;28;20049;-62
2022/03/07 13:04:26;;;;;;;16.95;7.63;;;9.40;65.30;;;;;;4995599;28;20026;-62
2022/03/07 13:06:54;;;;;;;16.85;8.90;;;9.40;65.70;;;;;;4996348;28;20030;-62